LiveATC.Net - Listen to live air traffic control over the Internet!

ICAO: KDWH  IATA: DWH   Airport: David Wayne Hooks Memorial Airport
City: Houston   State/Province: Texas
Country: United States   Continent: North America
KDWH METAR Weather: KDWH 261753Z 18004KT 10SM CLR 28/15 A3016 RMK AO2 SLP210 T02780150 10278 20150 58001
KDWH Flight Activity (FlightAware)
KDWH Airport Info   (AirNav) (iFlightPlanner)
KDWH VFR Sectional Chart   (iFlightPlanner) 
KDWH IFR Low Chart   (iFlightPlanner) 
KDWH Del/ Gnd/Twr
Feed Status: UP   Listeners: 3
Listen right in your browser - requires Flash (in browser, requires Flash)
Click here to listen with your own player (launches your MP3 player)
KDWH Del/ Gnd/Twr Audio Archives
Hooks Clearance Delivery119.450
Hooks Ground121.800
Hooks Tower (E)127.400
Hooks Tower (W)118.400
Hooks UNICOM122.950


Unauthorized use prohibited. See Terms of Service

Find LiveATC Audio Streams

Airport/ARTCC Code

(e.g., 124.400, 128.75)
Site-wide search

Browse LiveATC Feeds
LiveATC Coverage Map
Top 50 LiveATC Feeds
Bad Weather Areas

Offer a LiveATC Feed
Press Inquiries

LiveATC on iPhone
LiveATC on Android

Windows Phone
Windows 8/10

LiveATC Mobile
(Mobile browser)

ATC Audio Archives
Interesting Recordings

LiveATC Forums

Home Page
Make a Donation
LiveATC Store

Terms of Use
Privacy Policy

Canadian Air Freqs


FAA Airport Status
Nat'l Airspace Status
Arrival Demand Charts

Server Software By: